SEZ weather

Seychelles International Airport
Mahe Island, Pointe La Rue, Seychelles

Public forecast

Using degrees Celsius for public forecast. Weather courtesy of forecast.io.

Current aviation weather report (METAR) for Seychelles International Airport

Retrieved 2019/12/09 23:00 UTC (28 minutes ago):

FSIA 092300Z VRB01KT 9999 FEW022 28/24 Q1009 NOSIG

Aviation forecast (TAF) for Seychelles International Airport

Retrieved 2019/12/09 18:30 UTC (5 hours ago):

TAF COR FSIA 091700Z 0918/1018 04005KT 9999 SCT020 PROB40 TEMPO 1008/1016 -SHRA BKN018